createdAt,value
2023-04-16T00:00:57.752Z,33.20
2023-04-16T00:01:57.841Z,27.90
2023-04-16T00:02:57.824Z,29.10
2023-04-16T00:03:57.876Z,32.20
2023-04-16T00:04:57.710Z,33.70
2023-04-16T00:05:57.659Z,32.80
2023-04-16T00:06:57.673Z,28.90
2023-04-16T00:07:57.651Z,35.80
2023-04-16T00:08:57.627Z,32.20
2023-04-16T00:09:57.606Z,33.30
2023-04-16T00:10:57.603Z,32.30
2023-04-16T00:11:57.617Z,31.60
2023-04-16T00:12:57.570Z,37.50
2023-04-16T00:13:57.554Z,39.90
2023-04-16T00:14:57.554Z,35.80
2023-04-16T00:15:57.526Z,35.80
2023-04-16T00:16:57.581Z,39.20
2023-04-16T00:17:57.524Z,35.80
2023-04-16T00:18:57.534Z,33.60
2023-04-16T00:19:57.475Z,34.50
2023-04-16T00:20:57.478Z,33.10
2023-04-16T00:21:57.465Z,34.80
2023-04-16T00:22:57.454Z,34.40
2023-04-16T00:23:57.426Z,36.30
2023-04-16T00:24:57.414Z,32.30
2023-04-16T00:25:57.403Z,37.60
2023-04-16T00:26:57.415Z,38.30
2023-04-16T00:27:57.372Z,32.50
2023-04-16T00:28:57.366Z,32.60
2023-04-16T00:29:57.360Z,31.20
2023-04-16T00:30:57.344Z,35.20
2023-04-16T00:31:57.333Z,36.00
2023-04-16T00:32:57.357Z,35.50
2023-04-16T00:33:57.291Z,31.60
2023-04-16T00:34:57.286Z,43.20
2023-04-16T00:35:57.278Z,37.00
2023-04-16T00:36:57.271Z,36.20
2023-04-16T00:37:57.234Z,34.20
2023-04-16T00:38:57.241Z,37.70
2023-04-16T00:39:57.234Z,32.20
2023-04-16T00:40:57.212Z,34.70
2023-04-16T00:41:57.227Z,38.00
2023-04-16T00:42:57.176Z,40.10
2023-04-16T00:43:57.157Z,41.30
2023-04-16T00:44:57.164Z,41.80
2023-04-16T00:45:57.227Z,36.40
2023-04-16T00:46:57.139Z,40.00
2023-04-16T00:47:58.778Z,43.30
2023-04-16T00:48:57.108Z,37.10
2023-04-16T00:49:57.070Z,41.10
2023-04-16T00:50:57.073Z,40.00
2023-04-16T00:51:57.066Z,41.10
2023-04-16T00:52:57.042Z,38.70
2023-04-16T00:53:57.056Z,44.50
2023-04-16T00:54:57.022Z,41.80
2023-04-16T00:55:57.006Z,43.90
2023-04-16T00:56:57.003Z,32.40
2023-04-16T00:57:56.982Z,36.50
2023-04-16T00:58:56.969Z,40.10
2023-04-16T00:59:56.944Z,34.80
2023-04-16T01:00:56.942Z,34.80
2023-04-16T01:01:57.003Z,36.60
2023-04-16T01:02:57.056Z,43.70
2023-04-16T01:03:57.054Z,40.40
2023-04-16T01:04:56.911Z,39.40
2023-04-16T01:05:56.882Z,39.20
2023-04-16T01:06:56.877Z,34.40
2023-04-16T01:07:56.856Z,36.20
2023-04-16T01:08:56.836Z,39.30
2023-04-16T01:09:56.844Z,42.40
2023-04-16T01:10:56.825Z,39.90
2023-04-16T01:13:06.615Z,28.70
2023-04-16T01:14:06.593Z,29.90
2023-04-16T01:15:06.575Z,32.20
2023-04-16T01:16:06.600Z,37.50
2023-04-16T01:17:06.577Z,37.50
2023-04-16T01:18:06.623Z,34.90
2023-04-16T01:19:06.515Z,32.10
2023-04-16T01:20:06.504Z,82.00
2023-04-16T01:21:06.490Z,39.10
2023-04-16T01:22:06.486Z,97.20
2023-04-16T01:23:06.473Z,47.70
2023-04-16T01:24:06.453Z,38.10
2023-04-16T01:25:06.449Z,35.30
2023-04-16T01:26:06.422Z,39.50
2023-04-16T01:27:06.441Z,33.90
2023-04-16T01:28:06.396Z,39.30
2023-04-16T01:29:06.559Z,34.70
2023-04-16T01:30:06.366Z,33.20
2023-04-16T01:31:06.393Z,39.10
2023-04-16T01:32:06.353Z,30.90
2023-04-16T01:33:06.339Z,38.00
2023-04-16T01:34:06.327Z,32.10
2023-04-16T01:35:06.310Z,37.20
2023-04-16T01:36:06.302Z,32.90
2023-04-16T01:37:06.313Z,33.80
2023-04-16T01:38:06.278Z,41.60
2023-04-16T01:39:06.292Z,37.70
2023-04-16T01:40:06.245Z,33.40
2023-04-16T01:41:06.241Z,35.90
2023-04-16T01:42:06.245Z,35.90
2023-04-16T01:43:06.198Z,37.80
2023-04-16T01:44:06.191Z,39.70
2023-04-16T01:45:06.175Z,43.50
2023-04-16T01:46:06.155Z,40.10
2023-04-16T01:47:06.167Z,35.00
2023-04-16T01:48:06.142Z,46.20
2023-04-16T01:49:06.123Z,37.60
2023-04-16T01:50:06.114Z,42.70
2023-04-16T01:51:06.118Z,42.60
2023-04-16T01:52:06.092Z,43.60
2023-04-16T01:53:06.080Z,45.20
2023-04-16T01:54:06.056Z,41.80
2023-04-16T01:55:06.045Z,40.40
2023-04-16T01:56:06.040Z,43.40
2023-04-16T01:57:06.035Z,37.80
2023-04-16T01:58:05.992Z,38.30
2023-04-16T01:59:05.980Z,38.10
2023-04-16T02:00:05.977Z,43.50
2023-04-16T02:01:06.056Z,42.50
2023-04-16T02:02:06.028Z,45.90
2023-04-16T02:03:06.071Z,40.20
2023-04-16T02:04:06.047Z,46.30
2023-04-16T02:05:05.934Z,44.90
2023-04-16T02:06:05.891Z,44.00
2023-04-16T02:07:05.899Z,49.90
2023-04-16T02:08:05.867Z,45.00
2023-04-16T02:09:05.854Z,53.30
2023-04-16T02:10:05.840Z,50.30
2023-04-16T02:11:05.834Z,53.20
2023-04-16T02:12:05.838Z,51.20
2023-04-16T02:13:05.798Z,43.00
2023-04-16T02:14:05.783Z,49.90
2023-04-16T02:15:05.774Z,54.10
2023-04-16T02:16:05.771Z,50.90
2023-04-16T02:17:05.759Z,53.90
2023-04-16T02:18:05.818Z,55.70
2023-04-16T02:19:05.726Z,56.00
2023-04-16T02:20:05.702Z,54.50
2023-04-16T02:21:05.704Z,60.20
2023-04-16T02:22:05.709Z,61.50
2023-04-16T02:23:05.667Z,58.00
2023-04-16T02:24:05.647Z,63.30
2023-04-16T02:25:05.639Z,61.40
2023-04-16T02:26:05.614Z,60.80
2023-04-16T02:27:05.644Z,61.90
2023-04-16T02:28:05.601Z,66.10
2023-04-16T02:29:05.577Z,71.00
2023-04-16T02:30:05.576Z,65.70
2023-04-16T02:31:05.559Z,65.70
2023-04-16T02:32:05.620Z,65.60
2023-04-16T02:33:05.672Z,81.20
2023-04-16T02:34:05.522Z,75.80
2023-04-16T02:35:05.512Z,76.00
2023-04-16T02:36:05.498Z,75.30
2023-04-16T02:37:05.513Z,80.40
2023-04-16T02:38:05.459Z,81.10
2023-04-16T02:39:05.450Z,81.10
2023-04-16T02:40:05.440Z,69.10
2023-04-16T02:41:05.419Z,76.90
2023-04-16T02:42:05.437Z,76.90
2023-04-16T02:43:05.400Z,76.50
2023-04-16T02:44:05.389Z,86.40
2023-04-16T02:45:05.382Z,77.40
2023-04-16T02:46:05.394Z,72.80
2023-04-16T02:47:05.365Z,74.60
2023-04-16T02:48:05.339Z,84.30
2023-04-16T02:49:05.322Z,73.10
2023-04-16T02:50:05.302Z,83.60
2023-04-16T02:51:05.312Z,77.30
2023-04-16T02:52:05.290Z,81.10
2023-04-16T02:53:05.278Z,86.80
2023-04-16T02:54:05.255Z,82.80
2023-04-16T02:55:05.242Z,84.10
2023-04-16T02:56:05.254Z,88.20
2023-04-16T02:57:05.234Z,88.00
2023-04-16T02:58:05.200Z,83.30
2023-04-16T02:59:05.200Z,87.10
2023-04-16T03:00:05.176Z,88.20
2023-04-16T03:01:05.203Z,80.10
2023-04-16T03:02:05.221Z,79.20
2023-04-16T03:03:05.174Z,87.30
2023-04-16T03:04:05.150Z,91.20
2023-04-16T03:05:05.132Z,100.10
2023-04-16T03:06:05.092Z,97.60
2023-04-16T03:07:05.102Z,107.10
2023-04-16T03:08:05.060Z,100.40
2023-04-16T03:09:05.063Z,95.20
2023-04-16T03:10:05.028Z,95.00
2023-04-16T03:11:05.034Z,103.30
2023-04-16T03:12:05.032Z,96.00
2023-04-16T03:13:05.006Z,92.80
2023-04-16T03:14:04.989Z,84.40
2023-04-16T03:15:04.986Z,92.40
2023-04-16T03:16:04.968Z,102.50
2023-04-16T03:17:04.959Z,97.60
2023-04-16T03:18:04.946Z,100.40
2023-04-16T03:19:04.927Z,94.70
2023-04-16T03:20:05.004Z,118.20
2023-04-16T03:21:04.895Z,99.70
2023-04-16T03:22:04.929Z,113.60
2023-04-16T03:23:04.861Z,102.10
2023-04-16T03:24:04.864Z,112.80
2023-04-16T03:25:04.854Z,103.60
2023-04-16T03:26:04.824Z,112.10
2023-04-16T03:27:04.855Z,95.70
2023-04-16T03:28:04.809Z,89.00
2023-04-16T03:29:04.798Z,105.10
2023-04-16T03:30:04.778Z,92.90
2023-04-16T03:31:04.856Z,86.20
2023-04-16T03:32:04.777Z,151.40
2023-04-16T03:33:04.746Z,225.00
2023-04-16T03:34:04.725Z,117.60
2023-04-16T03:35:04.722Z,94.20
2023-04-16T03:36:04.704Z,103.40
2023-04-16T03:37:04.700Z,146.90
2023-04-16T03:38:04.663Z,107.30
2023-04-16T03:39:04.656Z,111.80
2023-04-16T03:40:04.692Z,96.00
2023-04-16T03:41:04.636Z,90.50
2023-04-16T03:42:04.649Z,91.50
2023-04-16T03:43:04.622Z,96.20
2023-04-16T03:44:04.599Z,90.80
2023-04-16T03:45:04.612Z,89.80
2023-04-16T03:46:04.609Z,90.70
2023-04-16T03:47:04.567Z,84.00
2023-04-16T03:48:04.535Z,91.30
2023-04-16T03:49:04.528Z,86.70
2023-04-16T03:50:04.523Z,79.70
2023-04-16T03:51:04.495Z,77.00
2023-04-16T03:52:04.506Z,99.90
2023-04-16T03:53:04.478Z,88.50
2023-04-16T03:54:04.464Z,92.70
2023-04-16T03:55:04.462Z,89.60
2023-04-16T03:56:04.450Z,91.10
2023-04-16T03:57:04.447Z,95.20
2023-04-16T03:58:04.399Z,91.80
2023-04-16T03:59:04.419Z,89.70
2023-04-16T04:00:04.422Z,98.00
2023-04-16T04:01:04.368Z,95.90
2023-04-16T04:02:04.463Z,95.60
2023-04-16T04:03:04.577Z,92.40
2023-04-16T04:04:04.496Z,90.10
2023-04-16T04:05:04.436Z,91.60
2023-04-16T04:06:04.296Z,91.20
2023-04-16T04:07:04.310Z,96.00
2023-04-16T04:08:04.280Z,87.00
2023-04-16T04:09:04.272Z,77.90
2023-04-16T04:10:04.322Z,90.60
2023-04-16T04:11:04.253Z,92.80
2023-04-16T04:12:04.234Z,122.60
2023-04-16T04:13:04.219Z,98.10
2023-04-16T04:14:04.205Z,85.10
2023-04-16T04:15:04.330Z,84.40
2023-04-16T04:16:04.213Z,85.20
2023-04-16T04:17:04.172Z,77.70
2023-04-16T04:18:04.157Z,90.80
2023-04-16T04:19:04.129Z,76.40
2023-04-16T04:20:04.112Z,79.70
2023-04-16T04:21:04.104Z,81.80
2023-04-16T04:22:04.100Z,76.30
2023-04-16T04:23:04.083Z,83.00
2023-04-16T04:24:04.063Z,83.20
2023-04-16T04:25:04.079Z,89.50
2023-04-16T04:26:04.100Z,84.30
2023-04-16T04:27:04.027Z,88.40
2023-04-16T04:28:04.013Z,79.10
2023-04-16T04:29:04.024Z,84.10
2023-04-16T04:30:03.982Z,88.10
2023-04-16T04:31:03.985Z,85.30
2023-04-16T04:32:04.074Z,95.00
2023-04-16T04:33:04.027Z,89.10
2023-04-16T04:34:03.925Z,85.60
2023-04-16T04:35:03.926Z,105.30
2023-04-16T04:36:03.929Z,89.10
2023-04-16T04:37:03.907Z,109.10
2023-04-16T04:38:03.890Z,100.80
2023-04-16T04:39:03.878Z,111.20
2023-04-16T04:40:03.872Z,91.80
2023-04-16T04:41:03.876Z,79.60
2023-04-16T04:42:03.857Z,95.10
2023-04-16T04:43:03.804Z,103.20
2023-04-16T04:44:03.797Z,173.50
2023-04-16T04:45:03.826Z,108.90
2023-04-16T04:46:03.926Z,109.90
2023-04-16T04:47:03.787Z,105.60
2023-04-16T04:48:03.797Z,97.80
2023-04-16T04:49:03.767Z,95.10
2023-04-16T04:50:03.762Z,113.00
2023-04-16T04:51:05.023Z,101.90
2023-04-16T04:52:03.738Z,97.20
2023-04-16T04:53:03.682Z,116.70
2023-04-16T04:54:03.753Z,99.40
2023-04-16T04:55:03.665Z,124.20
2023-04-16T04:56:12.478Z,118.20
2023-04-16T04:57:04.638Z,95.40
2023-04-16T04:58:03.625Z,118.90
2023-04-16T04:59:03.603Z,117.70
2023-04-16T05:00:03.587Z,129.60
2023-04-16T05:01:03.677Z,135.90
2023-04-16T05:02:03.662Z,132.80
2023-04-16T05:03:03.637Z,113.60
2023-04-16T05:04:03.564Z,127.80
2023-04-16T05:05:03.544Z,127.50
2023-04-16T05:06:03.537Z,137.30
2023-04-16T05:07:03.503Z,172.60
2023-04-16T05:08:03.480Z,202.10
2023-04-16T05:09:03.469Z,128.90
2023-04-16T05:10:03.465Z,126.10
2023-04-16T05:11:03.451Z,131.70
2023-04-16T05:12:03.430Z,110.80
2023-04-16T05:13:03.418Z,132.10
2023-04-16T05:14:03.396Z,115.30
2023-04-16T05:15:03.384Z,117.20
2023-04-16T05:16:03.420Z,133.30
2023-04-16T05:17:03.532Z,118.90
2023-04-16T05:18:03.412Z,137.90
2023-04-16T05:19:03.340Z,126.20
2023-04-16T05:20:03.332Z,142.30
2023-04-16T05:21:03.308Z,137.60
2023-04-16T05:22:03.315Z,141.70
2023-04-16T05:23:03.295Z,155.80
2023-04-16T05:24:03.281Z,142.20
2023-04-16T05:25:03.272Z,141.50
2023-04-16T05:26:03.271Z,115.40
2023-04-16T05:27:03.236Z,139.90
2023-04-16T05:28:03.237Z,123.30
2023-04-16T05:29:03.231Z,129.60
2023-04-16T05:30:03.196Z,142.70
2023-04-16T05:31:03.211Z,165.00
2023-04-16T05:32:03.186Z,140.40
2023-04-16T05:33:03.152Z,141.50
2023-04-16T05:34:03.147Z,153.30
2023-04-16T05:35:03.192Z,139.60
2023-04-16T05:36:03.119Z,138.70
2023-04-16T05:37:03.108Z,163.20
2023-04-16T05:38:03.083Z,152.70
2023-04-16T05:39:03.062Z,169.50
2023-04-16T05:40:03.067Z,163.90
2023-04-16T05:41:03.065Z,165.20
2023-04-16T05:42:03.062Z,165.80
2023-04-16T05:43:03.014Z,173.60
2023-04-16T05:44:03.037Z,164.80
2023-04-16T05:45:02.979Z,167.00
2023-04-16T05:46:03.046Z,167.80
2023-04-16T05:47:02.963Z,167.30
2023-04-16T05:48:02.949Z,173.60
2023-04-16T05:49:02.938Z,180.20
2023-04-16T05:50:02.926Z,167.00
2023-04-16T05:51:02.924Z,174.00
2023-04-16T05:52:02.892Z,189.20
2023-04-16T05:53:02.883Z,163.90
2023-04-16T05:54:02.868Z,211.90
2023-04-16T05:55:02.846Z,205.10
2023-04-16T05:56:02.858Z,159.70
2023-04-16T05:57:02.823Z,163.60
2023-04-16T05:58:02.818Z,199.90
2023-04-16T05:59:02.805Z,177.60
2023-04-16T06:00:02.805Z,155.30
2023-04-16T06:01:02.789Z,174.90
2023-04-16T06:02:02.814Z,190.50
2023-04-16T06:03:02.977Z,174.70
2023-04-16T06:04:02.854Z,178.10
2023-04-16T06:05:02.779Z,163.20
2023-04-16T06:06:02.901Z,191.40
2023-04-16T06:07:02.693Z,161.80
2023-04-16T06:08:02.684Z,169.60
2023-04-16T06:09:02.677Z,182.20
2023-04-16T06:10:02.666Z,175.70
2023-04-16T06:11:02.674Z,181.90
2023-04-16T06:12:02.642Z,197.30
2023-04-16T06:13:02.609Z,187.80
2023-04-16T06:14:02.601Z,166.60
2023-04-16T06:15:02.592Z,204.30
2023-04-16T06:16:02.644Z,200.40
2023-04-16T06:17:02.562Z,207.80
2023-04-16T06:18:02.576Z,212.40
2023-04-16T06:19:02.538Z,183.20
2023-04-16T06:20:02.522Z,230.60
2023-04-16T06:21:02.545Z,204.10
2023-04-16T06:22:02.512Z,237.00
2023-04-16T06:23:02.501Z,245.40
2023-04-16T06:24:02.473Z,233.60
2023-04-16T06:25:02.449Z,182.30
2023-04-16T06:26:02.475Z,229.30
2023-04-16T06:27:02.449Z,200.70
2023-04-16T06:28:02.440Z,193.20
2023-04-16T06:29:02.428Z,208.70
2023-04-16T06:30:02.402Z,187.60
2023-04-16T06:31:02.443Z,199.30
2023-04-16T06:32:02.376Z,182.50
2023-04-16T06:33:02.370Z,170.20
2023-04-16T06:34:02.336Z,192.00
2023-04-16T06:35:02.347Z,213.60
2023-04-16T06:36:02.358Z,215.70
2023-04-16T06:37:02.292Z,194.30
2023-04-16T06:38:02.286Z,170.00
2023-04-16T06:39:02.303Z,173.90
2023-04-16T06:40:02.276Z,229.50
2023-04-16T06:41:02.256Z,201.50
2023-04-16T06:42:02.240Z,243.60
2023-04-16T06:43:02.222Z,202.00
2023-04-16T06:44:02.253Z,187.40
2023-04-16T06:45:02.222Z,210.80
2023-04-16T06:46:02.201Z,189.40
2023-04-16T06:47:02.244Z,178.10
2023-04-16T06:48:02.206Z,149.70
2023-04-16T06:49:02.151Z,191.60
2023-04-16T06:50:02.124Z,195.10
2023-04-16T06:51:02.172Z,157.40
2023-04-16T06:52:04.531Z,136.70
2023-04-16T06:53:02.070Z,141.90
2023-04-16T06:54:02.077Z,173.50
2023-04-16T06:55:02.123Z,141.50
2023-04-16T06:56:02.067Z,172.60
2023-04-16T06:57:02.094Z,155.20
2023-04-16T06:58:02.031Z,179.00
2023-04-16T06:59:02.013Z,140.30
2023-04-16T07:00:02.071Z,135.30
2023-04-16T07:01:02.082Z,142.30
2023-04-16T07:02:02.126Z,134.70
2023-04-16T07:03:02.366Z,163.40
2023-04-16T07:04:02.313Z,142.20
2023-04-16T07:05:01.922Z,139.40
2023-04-16T07:06:01.934Z,163.20
2023-04-16T07:07:01.898Z,151.60
2023-04-16T07:08:01.962Z,160.60
2023-04-16T07:09:01.867Z,142.20
2023-04-16T07:10:01.864Z,157.90
2023-04-16T07:11:01.867Z,142.40
2023-04-16T07:12:08.853Z,165.40
2023-04-16T07:13:01.812Z,155.40
2023-04-16T07:14:01.819Z,168.40
2023-04-16T07:15:01.792Z,173.50
2023-04-16T07:16:01.836Z,148.10
2023-04-16T07:17:01.803Z,144.90
2023-04-16T07:18:01.813Z,146.20
2023-04-16T07:19:01.773Z,138.90
2023-04-16T07:20:01.745Z,172.60
2023-04-16T07:21:01.725Z,166.20
2023-04-16T07:22:01.720Z,158.70
2023-04-16T07:23:01.684Z,147.30
2023-04-16T07:24:01.718Z,187.40
2023-04-16T07:25:01.672Z,201.50
2023-04-16T07:26:01.686Z,159.30
2023-04-16T07:27:01.647Z,135.30
2023-04-16T07:28:01.634Z,136.90
2023-04-16T07:29:01.611Z,132.50
2023-04-16T07:30:01.727Z,139.30
2023-04-16T07:31:01.596Z,125.60
2023-04-16T07:32:01.619Z,177.70
2023-04-16T07:33:01.610Z,152.20
2023-04-16T07:34:01.548Z,151.50
2023-04-16T07:35:01.530Z,127.90
2023-04-16T07:36:01.573Z,122.00
2023-04-16T07:37:01.511Z,137.00
2023-04-16T07:38:01.490Z,132.10
2023-04-16T07:39:01.501Z,113.50
2023-04-16T07:40:01.479Z,122.10
2023-04-16T07:41:01.453Z,121.90
2023-04-16T07:42:01.443Z,121.60
2023-04-16T07:43:01.422Z,124.60
2023-04-16T07:44:01.446Z,118.00
2023-04-16T07:45:01.414Z,126.40
2023-04-16T07:46:01.495Z,120.90
2023-04-16T07:47:02.864Z,141.10
2023-04-16T07:48:01.517Z,136.10
2023-04-16T07:49:01.411Z,118.50
2023-04-16T07:50:01.345Z,125.50
2023-04-16T07:51:01.329Z,112.30
2023-04-16T07:52:01.374Z,114.40
2023-04-16T07:53:01.304Z,107.00
2023-04-16T07:54:01.288Z,103.80
2023-04-16T07:55:01.268Z,104.50
2023-04-16T07:56:01.273Z,97.50
2023-04-16T07:57:01.248Z,92.90
2023-04-16T07:58:01.272Z,144.20
2023-04-16T07:59:14.433Z,97.70
2023-04-16T08:00:02.271Z,85.00
2023-04-16T08:01:01.196Z,76.10
2023-04-16T08:02:01.201Z,74.60
2023-04-16T08:03:01.336Z,69.90
2023-04-16T08:04:01.289Z,78.50
2023-04-16T08:05:01.162Z,137.60
2023-04-16T08:06:01.127Z,122.30
2023-04-16T08:07:01.109Z,91.50
2023-04-16T08:08:01.112Z,61.10
2023-04-16T08:09:01.085Z,64.10
2023-04-16T08:10:01.097Z,63.60
2023-04-16T08:11:01.059Z,60.60
2023-04-16T08:12:01.070Z,57.70
2023-04-16T08:13:01.040Z,57.40
2023-04-16T08:14:01.016Z,59.10
2023-04-16T08:15:01.029Z,63.00
2023-04-16T08:16:01.012Z,57.00
2023-04-16T08:17:01.001Z,61.30
2023-04-16T08:18:00.976Z,61.80
2023-04-16T08:19:00.984Z,61.40
2023-04-16T08:20:01.003Z,63.00
2023-04-16T08:21:00.921Z,58.80
2023-04-16T08:22:00.913Z,57.90
2023-04-16T08:23:00.885Z,58.70
2023-04-16T08:24:00.922Z,61.10
2023-04-16T08:25:00.885Z,55.90
2023-04-16T08:26:00.880Z,53.60
2023-04-16T08:27:11.440Z,54.60
2023-04-16T08:28:01.878Z,57.70
2023-04-16T08:29:00.803Z,59.50
2023-04-16T08:30:00.845Z,53.60
2023-04-16T08:31:00.811Z,56.50
2023-04-16T08:32:00.789Z,53.30
2023-04-16T08:33:00.812Z,53.90
2023-04-16T08:34:00.759Z,70.90
2023-04-16T08:35:00.763Z,64.50
2023-04-16T08:36:00.739Z,52.70
2023-04-16T08:37:00.724Z,52.10
2023-04-16T08:38:02.273Z,52.90
2023-04-16T08:39:00.704Z,49.20
2023-04-16T08:40:00.703Z,47.90
2023-04-16T08:41:00.666Z,50.60
2023-04-16T08:42:00.651Z,49.40
2023-04-16T08:43:00.614Z,51.40
2023-04-16T08:44:00.624Z,51.20
2023-04-16T08:45:00.594Z,48.90
2023-04-16T08:46:00.622Z,54.30
2023-04-16T08:47:00.735Z,52.80
2023-04-16T08:48:00.638Z,55.00
2023-04-16T08:49:00.545Z,50.70
2023-04-16T08:50:00.570Z,50.30
2023-04-16T08:51:00.533Z,50.70
2023-04-16T08:52:00.507Z,50.30
2023-04-16T08:53:00.497Z,48.70
2023-04-16T08:54:00.488Z,132.70
2023-04-16T08:55:00.543Z,67.40
2023-04-16T08:56:00.450Z,56.80
2023-04-16T08:57:00.447Z,51.10
2023-04-16T08:58:00.417Z,54.30
2023-04-16T08:59:00.410Z,52.00
2023-04-16T09:00:00.428Z,54.40
2023-04-16T09:01:00.426Z,51.40
2023-04-16T09:02:00.484Z,56.30
2023-04-16T09:03:00.474Z,54.40
2023-04-16T09:04:00.658Z,58.90
2023-04-16T09:05:00.367Z,56.40
2023-04-16T09:06:00.324Z,53.10
2023-04-16T09:07:00.311Z,56.70
2023-04-16T09:08:00.290Z,54.30
2023-04-16T09:09:00.278Z,56.20
2023-04-16T09:10:00.266Z,57.40
2023-04-16T09:11:00.258Z,51.40
2023-04-16T09:12:00.247Z,56.80
2023-04-16T09:13:00.224Z,51.80
2023-04-16T09:14:00.216Z,51.50
2023-04-16T09:15:00.234Z,49.30
2023-04-16T09:16:00.342Z,50.20
2023-04-16T09:17:00.181Z,51.30
2023-04-16T09:18:00.194Z,53.80
2023-04-16T09:19:00.138Z,45.10
2023-04-16T09:20:00.194Z,49.70
2023-04-16T09:21:00.135Z,56.60
2023-04-16T09:22:00.148Z,51.10
2023-04-16T09:23:00.123Z,49.50
2023-04-16T09:24:00.150Z,51.40
2023-04-16T09:25:00.092Z,53.40
2023-04-16T09:26:00.085Z,51.00
2023-04-16T09:27:00.043Z,52.10
2023-04-16T09:28:00.035Z,51.00
2023-04-16T09:29:00.015Z,50.80
2023-04-16T09:30:00.015Z,53.60
2023-04-16T09:30:59.979Z,52.80
2023-04-16T09:32:00.020Z,56.30
2023-04-16T09:33:00.022Z,54.70
2023-04-16T09:33:59.941Z,53.10
2023-04-16T09:34:59.942Z,57.10
2023-04-16T09:35:59.908Z,54.40
2023-04-16T09:36:59.903Z,56.90
2023-04-16T09:37:59.882Z,53.10
2023-04-16T09:38:59.893Z,54.50
2023-04-16T09:39:59.885Z,49.80
2023-04-16T09:40:59.854Z,53.90
2023-04-16T09:41:59.851Z,50.70
2023-04-16T09:42:59.827Z,52.80
2023-04-16T09:43:59.814Z,53.30
2023-04-16T09:45:01.384Z,49.60
2023-04-16T09:45:59.806Z,49.30
2023-04-16T09:46:59.764Z,49.80
2023-04-16T09:47:59.803Z,52.50
2023-04-16T09:48:59.749Z,51.90
2023-04-16T09:49:59.746Z,52.00
2023-04-16T09:50:59.720Z,47.40
2023-04-16T09:51:59.709Z,51.30
2023-04-16T09:52:59.712Z,52.70
2023-04-16T09:53:59.667Z,58.30
2023-04-16T09:54:59.687Z,54.50
2023-04-16T09:55:59.650Z,51.30
2023-04-16T09:56:59.650Z,50.30
2023-04-16T09:57:59.635Z,55.50
2023-04-16T09:58:59.610Z,56.20
2023-04-16T09:59:59.628Z,53.90
2023-04-16T10:00:59.670Z,54.80
2023-04-16T10:02:15.771Z,52.00
2023-04-16T10:03:00.644Z,53.20
2023-04-16T10:03:59.693Z,54.60
2023-04-16T10:04:59.554Z,53.50
2023-04-16T10:05:59.524Z,53.10
2023-04-16T10:06:59.521Z,50.00
2023-04-16T10:07:59.503Z,50.30
2023-04-16T10:08:59.487Z,48.90
2023-04-16T10:09:59.488Z,49.30
2023-04-16T10:10:59.454Z,46.70
2023-04-16T10:11:59.450Z,48.10
2023-04-16T10:12:59.438Z,52.80
2023-04-16T10:13:59.410Z,48.00
2023-04-16T10:14:59.429Z,54.90
2023-04-16T10:15:59.402Z,48.90
2023-04-16T10:16:59.600Z,54.30
2023-04-16T10:17:59.403Z,50.50
2023-04-16T10:18:59.347Z,53.80
2023-04-16T10:19:59.379Z,48.60
2023-04-16T10:20:59.342Z,50.00
2023-04-16T10:21:59.321Z,53.80
2023-04-16T10:22:59.295Z,69.90
2023-04-16T10:23:59.276Z,62.90
2023-04-16T10:24:59.284Z,48.90
2023-04-16T10:25:59.255Z,49.30
2023-04-16T10:26:59.273Z,48.40
2023-04-16T10:27:59.246Z,49.10
2023-04-16T10:28:59.228Z,46.70
2023-04-16T10:29:59.222Z,44.90
2023-04-16T10:30:59.231Z,45.00
2023-04-16T10:31:59.181Z,50.60
2023-04-16T10:33:00.653Z,51.20
2023-04-16T10:33:59.148Z,49.90
2023-04-16T10:34:59.155Z,49.30
2023-04-16T10:36:06.968Z,47.10
2023-04-16T10:37:00.165Z,46.80
2023-04-16T10:37:59.080Z,51.40
2023-04-16T10:38:59.135Z,48.40
2023-04-16T10:39:59.109Z,48.90
2023-04-16T10:40:59.068Z,45.40
2023-04-16T10:41:59.048Z,45.00
2023-04-16T10:42:59.041Z,50.90
2023-04-16T10:43:59.018Z,43.80
2023-04-16T10:44:59.023Z,48.10
2023-04-16T10:45:58.998Z,43.40
2023-04-16T10:46:58.980Z,42.00
2023-04-16T10:47:59.041Z,40.70
2023-04-16T10:48:58.949Z,41.40
2023-04-16T10:49:58.956Z,43.70
2023-04-16T10:50:58.920Z,42.20
2023-04-16T10:51:58.905Z,44.10
2023-04-16T10:52:58.893Z,101.70
2023-04-16T10:53:58.881Z,51.40
2023-04-16T10:54:58.904Z,39.80
2023-04-16T10:55:58.854Z,41.00
2023-04-16T10:56:58.858Z,41.60
2023-04-16T10:57:58.825Z,43.30
2023-04-16T10:58:58.827Z,43.20
2023-04-16T10:59:58.810Z,40.80
2023-04-16T11:00:58.783Z,42.70
2023-04-16T11:01:58.848Z,43.90
2023-04-16T11:02:58.847Z,37.70
2023-04-16T11:03:58.983Z,38.40
2023-04-16T11:04:58.950Z,42.40
2023-04-16T11:05:58.710Z,39.90
2023-04-16T11:06:58.710Z,40.60
2023-04-16T11:07:58.686Z,45.70
2023-04-16T11:08:58.678Z,39.20
2023-04-16T11:09:58.674Z,39.00
2023-04-16T11:10:58.664Z,44.90
2023-04-16T11:11:58.654Z,89.80
2023-04-16T11:12:58.626Z,109.20
2023-04-16T11:13:58.605Z,43.20
2023-04-16T11:14:58.633Z,42.90
2023-04-16T11:15:58.615Z,47.10
2023-04-16T11:16:58.568Z,45.00
2023-04-16T11:17:58.618Z,41.90
2023-04-16T11:18:58.537Z,44.70
2023-04-16T11:19:58.560Z,46.80
2023-04-16T11:20:58.522Z,41.90
2023-04-16T11:21:58.507Z,46.70
2023-04-16T11:22:58.508Z,45.70
2023-04-16T11:23:58.462Z,43.20
2023-04-16T11:24:58.484Z,42.30
2023-04-16T11:25:58.458Z,45.80
2023-04-16T11:26:58.432Z,39.00
2023-04-16T11:27:58.426Z,40.90
2023-04-16T11:28:58.407Z,41.70
2023-04-16T11:29:58.414Z,40.50
2023-04-16T11:30:58.410Z,40.30
2023-04-16T11:31:58.384Z,38.70
2023-04-16T11:32:58.442Z,37.30
2023-04-16T11:33:58.350Z,41.30
2023-04-16T11:34:58.362Z,40.90
2023-04-16T11:35:58.332Z,38.00
2023-04-16T11:36:58.300Z,37.00
2023-04-16T11:37:58.278Z,38.30
2023-04-16T11:38:58.289Z,36.20
2023-04-16T11:39:58.265Z,41.40
2023-04-16T11:40:58.243Z,33.20
2023-04-16T11:41:58.260Z,35.90
2023-04-16T11:42:59.790Z,36.70
2023-04-16T11:43:58.220Z,32.90
2023-04-16T11:44:58.218Z,36.30
2023-04-16T11:45:58.188Z,33.80
2023-04-16T11:46:58.201Z,31.30
2023-04-16T11:47:58.239Z,31.00
2023-04-16T11:48:58.155Z,33.00
2023-04-16T11:49:58.131Z,47.40
2023-04-16T11:50:58.121Z,38.20
2023-04-16T11:51:58.120Z,27.90
2023-04-16T11:52:58.108Z,28.70
2023-04-16T11:53:58.107Z,29.80
2023-04-16T11:54:58.117Z,26.60
2023-04-16T11:55:58.054Z,27.50
2023-04-16T11:56:58.050Z,27.20
2023-04-16T11:57:58.055Z,28.90
2023-04-16T11:58:58.029Z,26.00
2023-04-16T12:00:02.474Z,29.70
2023-04-16T12:00:59.033Z,31.40
2023-04-16T12:01:58.101Z,30.70
2023-04-16T12:02:58.052Z,34.10
2023-04-16T12:03:58.177Z,29.20
2023-04-16T12:04:57.961Z,29.60
2023-04-16T12:05:57.918Z,31.20
2023-04-16T12:06:57.913Z,29.60
2023-04-16T12:07:57.895Z,27.60
2023-04-16T12:08:57.904Z,30.70
2023-04-16T12:09:57.861Z,26.30
2023-04-16T12:10:57.853Z,18.90
2023-04-16T12:11:57.852Z,16.50
2023-04-16T12:12:57.833Z,17.60
2023-04-16T12:13:57.810Z,16.10
2023-04-16T12:14:57.840Z,15.50
2023-04-16T12:15:57.773Z,14.70
2023-04-16T12:16:57.888Z,15.40
2023-04-16T12:17:57.907Z,14.10
2023-04-16T12:18:57.755Z,17.00
2023-04-16T12:19:57.750Z,18.50
2023-04-16T12:20:57.718Z,20.40
2023-04-16T12:21:57.715Z,18.20
2023-04-16T12:22:57.700Z,19.70
2023-04-16T12:23:57.674Z,20.50
2023-04-16T12:24:57.682Z,36.10
2023-04-16T12:25:57.653Z,25.40
2023-04-16T12:26:57.711Z,43.20
2023-04-16T12:27:57.625Z,24.20
2023-04-16T12:28:57.616Z,30.40
2023-04-16T12:29:57.615Z,25.40
2023-04-16T12:30:57.657Z,27.90
2023-04-16T12:31:57.588Z,29.90
2023-04-16T12:32:59.081Z,27.10
2023-04-16T12:33:57.555Z,30.90
2023-04-16T12:34:57.550Z,26.90
2023-04-16T12:35:57.516Z,28.70
2023-04-16T12:36:57.513Z,26.60
2023-04-16T12:37:57.490Z,27.70
2023-04-16T12:38:57.484Z,26.00
2023-04-16T12:39:57.510Z,26.00
2023-04-16T12:40:57.574Z,25.30
2023-04-16T12:41:57.437Z,25.90
2023-04-16T12:42:57.450Z,27.00
2023-04-16T12:43:57.412Z,27.40
2023-04-16T12:44:57.430Z,60.50
2023-04-16T12:45:57.419Z,52.50
2023-04-16T12:46:57.369Z,29.60